createdAt,value
2017-08-09T00:02:03.945Z,7.23
2017-08-09T00:04:30.391Z,2.97
2017-08-09T00:06:56.829Z,8.50
2017-08-09T00:09:23.275Z,3.23
2017-08-09T00:11:49.738Z,3.73
2017-08-09T00:14:16.940Z,2.93
2017-08-09T00:16:43.400Z,2.40
2017-08-09T00:19:10.027Z,2.20
2017-08-09T00:21:36.506Z,2.93
2017-08-09T00:24:02.964Z,2.90
2017-08-09T00:26:29.419Z,2.17
2017-08-09T00:28:55.876Z,5.20
2017-08-09T00:31:22.327Z,3.47
2017-08-09T00:33:49.535Z,2.00
2017-08-09T00:36:16.005Z,1.93
2017-08-09T00:38:42.475Z,1.70
2017-08-09T00:41:08.960Z,3.83
2017-08-09T00:43:35.415Z,2.00
2017-08-09T00:46:02.605Z,1.60
2017-08-09T00:48:29.054Z,3.17
2017-08-09T00:50:55.505Z,1.40
2017-08-09T00:53:21.975Z,2.80
2017-08-09T00:55:49.179Z,1.73
2017-08-09T00:58:15.603Z,1.80
2017-08-09T01:00:42.288Z,1.90
2017-08-09T01:03:09.520Z,2.03
2017-08-09T01:05:35.997Z,2.87
2017-08-09T01:08:03.211Z,5.13
2017-08-09T01:10:30.417Z,1.87
2017-08-09T01:12:56.877Z,2.30
2017-08-09T01:15:23.330Z,3.30
2017-08-09T01:17:49.773Z,15.47
2017-08-09T01:20:16.939Z,6.03
2017-08-09T01:22:44.172Z,4.40
2017-08-09T01:25:11.377Z,2.70
2017-08-09T01:27:37.813Z,6.00
2017-08-09T01:30:04.261Z,2.27
2017-08-09T01:32:30.756Z,2.30
2017-08-09T01:34:57.220Z,2.57
2017-08-09T01:37:23.754Z,1.77
2017-08-09T01:39:50.214Z,1.93
2017-08-09T01:42:16.703Z,1.60
2017-08-09T01:44:43.174Z,1.93
2017-08-09T01:47:09.625Z,2.30
2017-08-09T01:49:36.119Z,8.70
2017-08-09T01:52:02.607Z,6.57
2017-08-09T01:54:29.838Z,2.43
2017-08-09T01:56:56.345Z,7.40
2017-08-09T01:59:22.813Z,3.93
2017-08-09T02:01:49.308Z,2.53
2017-08-09T02:04:15.811Z,2.27
2017-08-09T02:06:42.303Z,1.80
2017-08-09T02:09:08.824Z,5.60
2017-08-09T02:11:35.285Z,2.23
2017-08-09T02:14:01.820Z,5.67
2017-08-09T02:16:28.251Z,4.73
2017-08-09T02:18:54.744Z,5.13
2017-08-09T02:21:21.248Z,3.70
2017-08-09T02:23:47.756Z,6.47
2017-08-09T02:26:14.967Z,5.60
2017-08-09T02:28:41.414Z,3.37
2017-08-09T02:31:07.857Z,4.70
2017-08-09T02:33:34.301Z,2.60
2017-08-09T02:36:00.762Z,3.50
2017-08-09T02:38:27.923Z,6.20
2017-08-09T02:40:54.383Z,2.57
2017-08-09T02:43:20.885Z,4.37
2017-08-09T02:45:47.329Z,4.97
2017-08-09T02:48:13.776Z,3.37
2017-08-09T02:50:40.262Z,3.87
2017-08-09T02:53:06.715Z,4.77
2017-08-09T02:55:33.902Z,3.10
2017-08-09T02:58:00.356Z,4.23
2017-08-09T03:00:26.868Z,3.67
2017-08-09T03:02:53.326Z,4.87
2017-08-09T03:05:19.763Z,10.47
2017-08-09T03:07:46.243Z,7.50
2017-08-09T03:10:12.718Z,4.43
2017-08-09T03:12:39.165Z,3.33
2017-08-09T03:15:05.620Z,3.60
2017-08-09T03:17:32.169Z,3.37
2017-08-09T03:19:59.347Z,3.80
2017-08-09T03:22:25.763Z,4.80
2017-08-09T03:24:52.955Z,4.40
2017-08-09T03:27:19.455Z,6.30
2017-08-09T03:29:45.903Z,18.90
2017-08-09T03:32:12.362Z,5.40
2017-08-09T03:34:38.830Z,7.93
2017-08-09T03:37:05.280Z,4.27
2017-08-09T03:39:32.473Z,3.53
2017-08-09T03:41:58.935Z,5.80
2017-08-09T03:44:25.392Z,3.80
2017-08-09T03:46:52.581Z,4.10
2017-08-09T03:49:19.017Z,6.60
2017-08-09T03:51:45.490Z,13.63
2017-08-09T03:54:11.929Z,13.47
2017-08-09T03:56:38.399Z,6.77
2017-08-09T03:59:04.866Z,6.13
2017-08-09T04:01:31.299Z,6.20
2017-08-09T04:03:57.752Z,3.83
2017-08-09T04:06:24.216Z,9.67
2017-08-09T04:08:51.414Z,7.20
2017-08-09T04:11:17.851Z,6.43
2017-08-09T04:13:44.291Z,6.63
2017-08-09T04:16:10.758Z,6.17
2017-08-09T04:18:37.978Z,10.20
2017-08-09T04:21:04.502Z,4.33
2017-08-09T04:23:30.957Z,7.60
2017-08-09T04:25:57.405Z,4.33
2017-08-09T04:28:24.677Z,4.00
2017-08-09T04:30:51.158Z,4.57
2017-08-09T04:33:17.664Z,4.73
2017-08-09T04:35:44.116Z,10.13
2017-08-09T04:38:10.555Z,5.07
2017-08-09T04:40:37.016Z,3.23
2017-08-09T04:43:03.471Z,4.97
2017-08-09T04:45:30.672Z,5.57
2017-08-09T04:47:57.126Z,5.53
2017-08-09T04:50:23.589Z,18.17
2017-08-09T04:52:50.785Z,6.30
2017-08-09T04:55:17.228Z,8.23
2017-08-09T04:57:43.675Z,15.60
2017-08-09T05:00:10.182Z,7.10
2017-08-09T05:02:36.645Z,5.80
2017-08-09T05:05:03.102Z,5.03
2017-08-09T05:07:29.546Z,4.63
2017-08-09T05:09:56.756Z,9.70
2017-08-09T05:12:23.224Z,4.50
2017-08-09T05:14:49.676Z,6.50
2017-08-09T05:17:16.191Z,6.27
2017-08-09T05:19:43.405Z,2.40
2017-08-09T05:22:09.872Z,5.13
2017-08-09T05:24:36.349Z,7.57
2017-08-09T05:27:02.805Z,3.83
2017-08-09T05:29:29.267Z,10.70
2017-08-09T05:31:55.776Z,3.10
2017-08-09T05:34:22.320Z,2.30
2017-08-09T05:36:48.829Z,5.33
2017-08-09T05:39:15.283Z,5.07
2017-08-09T05:41:41.766Z,3.50
2017-08-09T05:44:08.993Z,6.70
2017-08-09T05:46:35.431Z,3.80
2017-08-09T05:49:02.655Z,2.60
2017-08-09T05:51:29.087Z,2.90
2017-08-09T05:53:55.544Z,3.40
2017-08-09T05:56:21.997Z,3.97
2017-08-09T05:58:49.208Z,4.73
2017-08-09T06:01:15.675Z,4.40
2017-08-09T06:03:42.886Z,4.30
2017-08-09T06:06:09.363Z,3.87
2017-08-09T06:08:36.559Z,2.33
2017-08-09T06:11:02.999Z,2.13
2017-08-09T06:13:29.432Z,3.00
2017-08-09T06:15:55.879Z,2.53
2017-08-09T06:18:22.356Z,4.00
2017-08-09T06:20:49.535Z,11.40
2017-08-09T06:23:15.999Z,4.03
2017-08-09T06:25:42.481Z,2.60
2017-08-09T06:28:08.935Z,2.57
2017-08-09T06:30:35.420Z,8.53
2017-08-09T06:33:02.200Z,2.53
2017-08-09T06:35:28.695Z,2.93
2017-08-09T06:37:55.159Z,6.83
2017-08-09T06:40:22.362Z,1.83
2017-08-09T06:42:48.820Z,1.77
2017-08-09T06:45:15.274Z,4.80
2017-08-09T06:47:42.535Z,6.47
2017-08-09T06:50:09.016Z,5.13
2017-08-09T06:52:35.461Z,3.77
2017-08-09T06:55:01.892Z,4.40
2017-08-09T06:57:28.318Z,3.50
2017-08-09T06:59:54.800Z,2.17
2017-08-09T07:02:21.281Z,4.63
2017-08-09T07:04:47.741Z,2.90
2017-08-09T07:07:14.200Z,2.33
2017-08-09T07:09:41.388Z,2.23
2017-08-09T07:12:07.836Z,5.43
2017-08-09T07:14:34.319Z,2.47
2017-08-09T07:17:00.795Z,6.07
2017-08-09T07:19:27.287Z,4.40
2017-08-09T07:21:54.459Z,2.23
2017-08-09T07:24:20.916Z,3.63
2017-08-09T07:26:47.415Z,2.27
2017-08-09T07:29:13.886Z,5.40
2017-08-09T07:31:40.319Z,3.43
2017-08-09T07:34:07.179Z,2.57
2017-08-09T07:36:33.775Z,5.23
2017-08-09T07:39:00.262Z,3.63
2017-08-09T07:41:26.753Z,3.07
2017-08-09T07:43:53.220Z,1.90
2017-08-09T07:46:19.697Z,2.40
2017-08-09T07:48:46.899Z,3.57
2017-08-09T07:51:13.383Z,1.77
2017-08-09T07:53:39.835Z,2.20
2017-08-09T07:56:06.297Z,4.30
2017-08-09T07:58:33.844Z,1.77
2017-08-09T08:01:00.321Z,1.67
2017-08-09T08:03:27.503Z,1.80
2017-08-09T08:05:53.942Z,2.37
2017-08-09T08:08:20.425Z,5.17
2017-08-09T08:10:47.650Z,1.60
2017-08-09T08:13:14.097Z,2.50
2017-08-09T08:15:40.584Z,2.10
2017-08-09T08:18:07.038Z,5.43
2017-08-09T08:20:33.462Z,5.10
2017-08-09T08:22:59.913Z,5.10
2017-08-09T08:25:26.389Z,1.90
2017-08-09T08:27:52.879Z,2.67
2017-08-09T08:30:19.337Z,5.00
2017-08-09T08:32:45.806Z,2.90
2017-08-09T08:35:13.060Z,8.10
2017-08-09T08:37:39.522Z,2.90
2017-08-09T08:40:05.968Z,2.20
2017-08-09T08:42:32.452Z,4.77
2017-08-09T08:44:59.626Z,1.90
2017-08-09T08:47:26.090Z,2.67
2017-08-09T08:49:52.541Z,2.50
2017-08-09T08:52:18.986Z,3.37
2017-08-09T08:54:45.450Z,2.40
2017-08-09T08:57:12.646Z,2.10
2017-08-09T08:59:39.104Z,9.53
2017-08-09T09:02:05.569Z,3.07
2017-08-09T09:04:32.807Z,2.33
2017-08-09T09:06:59.987Z,3.47
2017-08-09T09:09:26.443Z,1.50
2017-08-09T09:11:52.944Z,3.50
2017-08-09T09:14:19.405Z,2.73
2017-08-09T09:16:45.879Z,2.00
2017-08-09T09:19:12.320Z,3.10
2017-08-09T09:21:38.739Z,2.60
2017-08-09T09:24:05.200Z,3.90
2017-08-09T09:26:32.398Z,1.27
2017-08-09T09:28:58.905Z,2.70
2017-08-09T09:31:25.360Z,1.30
2017-08-09T09:33:51.836Z,2.23
2017-08-09T09:36:18.373Z,1.83
2017-08-09T09:38:44.835Z,2.30
2017-08-09T09:41:12.063Z,2.20
2017-08-09T09:43:39.275Z,2.03
2017-08-09T09:46:05.720Z,1.20
2017-08-09T09:48:32.163Z,2.50
2017-08-09T09:50:58.622Z,2.20
2017-08-09T09:53:25.847Z,2.20
2017-08-09T09:55:52.305Z,1.50
2017-08-09T09:58:18.789Z,1.40
2017-08-09T10:00:45.261Z,1.20
2017-08-09T10:03:11.699Z,2.30
2017-08-09T10:05:38.163Z,1.20
2017-08-09T10:08:05.347Z,1.50
2017-08-09T10:10:31.773Z,1.37
2017-08-09T10:12:58.207Z,2.93
2017-08-09T10:15:24.660Z,1.20
2017-08-09T10:17:51.764Z,1.70
2017-08-09T10:20:18.200Z,1.40
2017-08-09T10:22:44.651Z,1.57
2017-08-09T10:25:11.112Z,2.00
2017-08-09T10:27:37.561Z,1.73
2017-08-09T10:30:04.020Z,3.90
2017-08-09T10:32:31.220Z,1.17
2017-08-09T10:34:57.673Z,1.60
2017-08-09T10:37:24.205Z,1.37
2017-08-09T10:39:50.660Z,1.23
2017-08-09T10:42:17.104Z,2.80
2017-08-09T10:44:43.552Z,2.87
2017-08-09T10:47:10.758Z,0.90
2017-08-09T10:49:37.203Z,1.37
2017-08-09T10:52:03.651Z,3.90
2017-08-09T10:54:30.121Z,3.10
2017-08-09T10:56:56.576Z,2.87
2017-08-09T10:59:23.045Z,1.53
2017-08-09T11:01:49.500Z,1.30
2017-08-09T11:04:16.737Z,1.17
2017-08-09T11:09:18.020Z,2.00
2017-08-09T11:11:44.481Z,1.37
2017-08-09T11:14:10.955Z,1.83
2017-08-09T11:16:37.422Z,1.43
2017-08-09T11:19:04.625Z,2.70
2017-08-09T11:21:31.085Z,1.53
2017-08-09T11:23:57.520Z,1.17
2017-08-09T11:26:23.989Z,1.83
2017-08-09T11:28:50.446Z,1.37
2017-08-09T11:31:16.904Z,1.13
2017-08-09T11:33:43.357Z,1.50
2017-08-09T11:36:09.845Z,1.20
2017-08-09T11:38:36.375Z,1.27
2017-08-09T11:41:02.840Z,1.17
2017-08-09T11:43:29.312Z,1.10
2017-08-09T11:45:56.512Z,2.03
2017-08-09T11:48:22.985Z,1.20
2017-08-09T11:50:49.470Z,2.23
2017-08-09T11:53:15.947Z,3.13
2017-08-09T11:55:42.406Z,1.37
2017-08-09T11:58:08.864Z,1.93
2017-08-09T12:00:35.347Z,2.63
2017-08-09T12:03:01.806Z,5.57
2017-08-09T12:05:29.003Z,1.53
2017-08-09T12:07:55.482Z,1.20
2017-08-09T12:10:21.990Z,2.37
2017-08-09T12:12:48.463Z,6.33
2017-08-09T12:15:14.990Z,4.20
2017-08-09T12:17:41.480Z,1.30
2017-08-09T12:20:08.569Z,1.13
2017-08-09T12:22:35.081Z,1.63
2017-08-09T12:25:01.592Z,4.53
2017-08-09T12:27:28.040Z,1.23
2017-08-09T12:29:54.492Z,1.10
2017-08-09T12:32:20.965Z,1.90
2017-08-09T12:34:47.409Z,1.90
2017-08-09T12:37:13.856Z,2.97
2017-08-09T12:39:40.344Z,2.60
2017-08-09T12:42:06.856Z,2.37
2017-08-09T12:44:33.334Z,5.40
2017-08-09T12:46:59.778Z,4.43
2017-08-09T12:49:26.220Z,1.63
2017-08-09T12:51:52.681Z,3.20
2017-08-09T12:54:19.133Z,1.77
2017-08-09T12:56:45.611Z,2.30
2017-08-09T12:59:12.061Z,1.40
2017-08-09T13:01:38.522Z,1.40
2017-08-09T13:04:04.985Z,4.30
2017-08-09T13:06:32.192Z,3.90
2017-08-09T13:08:58.684Z,8.60
2017-08-09T13:11:26.045Z,1.70
2017-08-09T13:13:52.510Z,1.40
2017-08-09T13:16:18.959Z,1.60
2017-08-09T13:18:45.420Z,2.50
2017-08-09T13:21:11.868Z,2.23
2017-08-09T13:23:38.312Z,3.20
2017-08-09T13:26:05.544Z,4.13
2017-08-09T13:28:32.032Z,5.40
2017-08-09T13:30:58.481Z,11.07
2017-08-09T13:33:24.994Z,3.17
2017-08-09T13:35:51.476Z,3.90
2017-08-09T13:38:17.929Z,2.70
2017-08-09T13:40:44.396Z,3.50
2017-08-09T13:43:10.872Z,7.53
2017-08-09T13:45:37.420Z,3.07
2017-08-09T13:48:04.621Z,2.83
2017-08-09T13:50:31.163Z,2.17
2017-08-09T13:52:57.637Z,2.80
2017-08-09T13:55:24.367Z,3.73
2017-08-09T13:57:50.810Z,7.83
2017-08-09T14:00:17.271Z,5.50
2017-08-09T14:02:43.719Z,2.20
2017-08-09T14:05:10.188Z,4.30
2017-08-09T14:07:36.761Z,7.90
2017-08-09T14:10:03.232Z,3.43
2017-08-09T14:12:29.713Z,9.07
2017-08-09T14:14:56.159Z,11.70
2017-08-09T14:17:22.628Z,3.33
2017-08-09T14:19:49.053Z,3.67
2017-08-09T14:22:15.502Z,5.07
2017-08-09T14:24:41.948Z,4.70
2017-08-09T14:27:08.382Z,4.10
2017-08-09T14:29:34.849Z,4.33
2017-08-09T14:32:01.322Z,5.20
2017-08-09T14:34:27.802Z,9.10
2017-08-09T14:36:54.278Z,4.00
2017-08-09T14:39:20.768Z,8.53
2017-08-09T14:41:47.232Z,6.70
2017-08-09T14:44:13.697Z,8.30
2017-08-09T14:46:40.174Z,6.30
2017-08-09T14:49:06.634Z,6.00
2017-08-09T14:51:33.154Z,4.20
2017-08-09T14:53:59.625Z,4.07
2017-08-09T14:56:26.091Z,3.97
2017-08-09T14:58:52.547Z,4.10
2017-08-09T15:01:18.999Z,8.70
2017-08-09T15:03:45.427Z,4.10
2017-08-09T15:06:11.859Z,4.87
2017-08-09T15:08:38.304Z,5.13
2017-08-09T15:11:05.487Z,5.50
2017-08-09T15:13:31.937Z,4.00
2017-08-09T15:15:58.407Z,3.80
2017-08-09T15:18:24.876Z,4.17
2017-08-09T15:20:51.370Z,3.67
2017-08-09T15:23:24.944Z,6.20
2017-08-09T15:25:51.415Z,3.73
2017-08-09T15:28:17.904Z,5.40
2017-08-09T15:30:44.400Z,9.50
2017-08-09T15:33:10.897Z,5.87
2017-08-09T15:35:37.376Z,3.50
2017-08-09T15:38:04.569Z,7.10
2017-08-09T15:40:31.072Z,5.97
2017-08-09T15:42:57.593Z,5.30
2017-08-09T15:45:24.808Z,3.97
2017-08-09T15:47:51.325Z,6.23
2017-08-09T15:50:17.807Z,3.83
2017-08-09T15:52:44.298Z,3.57
2017-08-09T15:55:10.741Z,5.33
2017-08-09T15:57:37.195Z,11.03
2017-08-09T16:00:03.740Z,8.50
2017-08-09T16:02:30.943Z,4.30
2017-08-09T16:04:57.426Z,5.33
2017-08-09T16:07:23.913Z,8.40
2017-08-09T16:09:50.382Z,9.73
2017-08-09T16:12:16.852Z,4.97
2017-08-09T16:14:44.043Z,4.40
2017-08-09T16:17:10.517Z,7.73
2017-08-09T16:19:36.940Z,17.93
2017-08-09T16:22:03.633Z,15.17
2017-08-09T16:24:30.108Z,7.53
2017-08-09T16:26:56.575Z,10.43
2017-08-09T16:29:23.757Z,23.73
2017-08-09T16:31:50.199Z,9.20
2017-08-09T16:34:16.932Z,4.97
2017-08-09T16:36:43.432Z,7.90
2017-08-09T16:39:10.611Z,3.83
2017-08-09T16:41:37.067Z,4.87
2017-08-09T16:44:03.529Z,3.87
2017-08-09T16:46:30.003Z,4.30
2017-08-09T16:48:56.451Z,6.13
2017-08-09T16:51:22.880Z,5.83
2017-08-09T16:54:02.522Z,5.27
2017-08-09T16:56:28.987Z,14.87
2017-08-09T16:59:09.292Z,10.63
2017-08-09T17:01:36.492Z,6.83
2017-08-09T17:04:02.943Z,7.10
2017-08-09T17:06:29.385Z,5.10
2017-08-09T17:08:55.844Z,6.53
2017-08-09T17:11:22.371Z,5.13
2017-08-09T17:13:49.602Z,7.20
2017-08-09T17:16:16.119Z,8.10
2017-08-09T17:18:42.557Z,5.50
2017-08-09T17:21:09.013Z,6.10
2017-08-09T17:23:35.472Z,11.37
2017-08-09T17:26:04.783Z,17.47
2017-08-09T17:28:31.241Z,16.13
2017-08-09T17:30:57.697Z,13.90
2017-08-09T17:33:24.174Z,15.20
2017-08-09T17:35:51.404Z,18.40
2017-08-09T17:38:25.500Z,12.07
2017-08-09T17:40:51.966Z,13.80
2017-08-09T17:43:19.178Z,11.70
2017-08-09T17:45:45.613Z,9.67
2017-08-09T17:48:12.101Z,15.20
2017-08-09T17:50:39.257Z,17.17
2017-08-09T17:53:05.694Z,11.70
2017-08-09T17:55:32.167Z,17.03
2017-08-09T17:57:58.603Z,13.50
2017-08-09T18:00:25.063Z,18.50
2017-08-09T18:02:51.503Z,14.30
2017-08-09T18:05:18.766Z,14.67
2017-08-09T18:07:45.292Z,14.70
2017-08-09T18:10:12.522Z,13.63
2017-08-09T18:12:39.065Z,18.00
2017-08-09T18:15:05.538Z,17.30
2017-08-09T18:17:32.029Z,18.53
2017-08-09T18:19:58.515Z,22.33
2017-08-09T18:22:25.032Z,17.53
2017-08-09T18:24:51.530Z,16.57
2017-08-09T18:27:18.026Z,18.17
2017-08-09T18:29:44.474Z,22.53
2017-08-09T18:32:10.920Z,21.10
2017-08-09T18:34:37.396Z,25.83
2017-08-09T18:37:04.571Z,14.20
2017-08-09T18:39:31.022Z,17.50
2017-08-09T18:41:57.487Z,18.93
2017-08-09T18:44:23.936Z,22.97
2017-08-09T18:46:50.377Z,39.33
2017-08-09T18:49:17.591Z,22.70
2017-08-09T18:51:44.038Z,24.43
2017-08-09T18:54:10.465Z,24.67
2017-08-09T18:56:36.909Z,28.30
2017-08-09T18:59:03.353Z,25.57
2017-08-09T19:01:29.788Z,25.77
2017-08-09T19:03:56.208Z,23.53
2017-08-09T19:06:22.896Z,28.27
2017-08-09T19:08:49.348Z,19.87
2017-08-09T19:11:15.816Z,26.00
2017-08-09T19:13:42.287Z,22.17
2017-08-09T19:16:08.758Z,26.53
2017-08-09T19:18:35.245Z,27.63
2017-08-09T19:21:02.488Z,22.80
2017-08-09T19:23:29.717Z,21.33
2017-08-09T19:25:56.177Z,41.93
2017-08-09T19:28:23.407Z,28.67
2017-08-09T19:30:49.902Z,29.30
2017-08-09T19:33:16.335Z,24.33
2017-08-09T19:35:42.797Z,28.33
2017-08-09T19:38:09.267Z,25.37
2017-08-09T19:40:35.754Z,26.33
2017-08-09T19:43:02.201Z,28.63
2017-08-09T19:45:28.659Z,28.00
2017-08-09T19:47:55.105Z,24.77
2017-08-09T19:50:22.279Z,24.67
2017-08-09T19:52:48.738Z,23.53
2017-08-09T19:55:15.210Z,23.00
2017-08-09T19:57:57.325Z,28.77
2017-08-09T20:00:24.524Z,25.67
2017-08-09T20:02:50.990Z,28.77
2017-08-09T20:05:17.474Z,23.60
2017-08-09T20:07:43.909Z,25.60
2017-08-09T20:10:10.352Z,29.07
2017-08-09T20:12:37.082Z,21.57
2017-08-09T20:15:03.576Z,27.50
2017-08-09T20:17:30.031Z,23.00
2017-08-09T20:19:56.472Z,24.67
2017-08-09T20:22:22.964Z,34.73
2017-08-09T20:24:49.599Z,26.20
2017-08-09T20:27:16.068Z,27.13
2017-08-09T20:29:43.265Z,31.23
2017-08-09T20:32:09.725Z,21.73
2017-08-09T20:34:36.166Z,29.90
2017-08-09T20:37:03.349Z,29.73
2017-08-09T20:39:29.994Z,22.43
2017-08-09T20:41:56.427Z,26.33
2017-08-09T20:44:22.884Z,25.67
2017-08-09T20:46:49.384Z,28.90
2017-08-09T20:49:15.864Z,21.93
2017-08-09T20:51:42.300Z,28.73
2017-08-09T20:54:08.774Z,22.43
2017-08-09T20:56:35.970Z,26.10
2017-08-09T20:59:02.410Z,22.53
2017-08-09T21:01:28.863Z,28.30
2017-08-09T21:03:55.324Z,28.97
2017-08-09T21:06:22.518Z,24.83
2017-08-09T21:08:48.974Z,30.27
2017-08-09T21:11:15.424Z,27.33
2017-08-09T21:13:41.891Z,33.70
2017-08-09T21:16:08.351Z,27.40
2017-08-09T21:18:34.796Z,30.10
2017-08-09T21:21:01.250Z,28.60
2017-08-09T21:23:27.702Z,25.53
2017-08-09T21:25:54.944Z,33.43
2017-08-09T21:28:21.395Z,25.40
2017-08-09T21:30:48.586Z,24.70
2017-08-09T21:33:15.044Z,27.70
2017-08-09T21:35:41.473Z,26.63
2017-08-09T21:38:07.926Z,28.77
2017-08-09T21:40:34.407Z,34.77
2017-08-09T21:43:00.860Z,28.90
2017-08-09T21:45:27.306Z,28.73
2017-08-09T21:47:53.768Z,37.30
2017-08-09T21:50:20.210Z,34.37
2017-08-09T21:52:46.647Z,28.33
2017-08-09T21:55:13.815Z,26.43
2017-08-09T21:57:40.284Z,32.73
2017-08-09T22:00:06.753Z,33.13
2017-08-09T22:02:33.217Z,28.73
2017-08-09T22:04:59.693Z,30.77
2017-08-09T22:07:26.172Z,35.60
2017-08-09T22:09:53.359Z,30.53
2017-08-09T22:12:19.805Z,27.30
2017-08-09T22:14:46.239Z,29.30
2017-08-09T22:17:12.671Z,24.53
2017-08-09T22:19:39.135Z,31.33
2017-08-09T22:22:05.601Z,32.30
2017-08-09T22:24:32.761Z,29.70
2017-08-09T22:26:59.184Z,29.67
2017-08-09T22:29:25.705Z,30.53
2017-08-09T22:31:52.933Z,30.03
2017-08-09T22:34:19.396Z,27.93
2017-08-09T22:36:46.562Z,27.80
2017-08-09T22:39:13.032Z,28.10
2017-08-09T22:41:39.504Z,26.93
2017-08-09T22:44:06.684Z,30.10
2017-08-09T22:46:33.118Z,29.27
2017-08-09T22:48:59.595Z,28.70
2017-08-09T22:51:26.061Z,31.20
2017-08-09T22:53:53.262Z,32.10
2017-08-09T22:56:19.723Z,34.07
2017-08-09T22:58:46.189Z,34.80
2017-08-09T23:01:13.361Z,32.43
2017-08-09T23:03:39.811Z,37.90
2017-08-09T23:06:06.281Z,31.67
2017-08-09T23:08:32.747Z,27.90
2017-08-09T23:10:59.245Z,27.17
2017-08-09T23:13:25.714Z,33.47
2017-08-09T23:15:52.143Z,28.50
2017-08-09T23:18:19.344Z,29.47
2017-08-09T23:20:45.789Z,31.80
2017-08-09T23:23:12.243Z,31.97
2017-08-09T23:25:38.708Z,29.97
2017-08-09T23:28:05.152Z,24.47
2017-08-09T23:30:31.632Z,27.70
2017-08-09T23:32:58.091Z,32.70
2017-08-09T23:35:25.299Z,30.07
2017-08-09T23:37:51.731Z,33.60
2017-08-09T23:40:18.203Z,27.60
2017-08-09T23:42:45.406Z,36.20
2017-08-09T23:45:11.852Z,29.47
2017-08-09T23:47:38.293Z,29.03
2017-08-09T23:50:04.728Z,26.80
2017-08-09T23:52:31.199Z,25.57
2017-08-09T23:54:58.374Z,23.60
2017-08-09T23:57:24.832Z,28.63
2017-08-09T23:59:51.257Z,21.47
